createdAt,value
2022-10-26T00:01:22.053Z,10.63
2022-10-26T00:03:50.028Z,9.02
2022-10-26T00:06:24.383Z,14.05
2022-10-26T00:08:55.668Z,12.70
2022-10-26T00:11:24.223Z,11.70
2022-10-26T00:13:52.170Z,15.05
2022-10-26T00:16:26.508Z,16.52
2022-10-26T00:18:54.180Z,12.27
2022-10-26T00:21:21.951Z,9.75
2022-10-26T00:23:49.769Z,18.98
2022-10-26T00:26:17.383Z,10.75
2022-10-26T00:28:45.057Z,16.73
2022-10-26T00:31:14.755Z,19.45
2022-10-26T00:33:42.638Z,12.98
2022-10-26T00:36:10.758Z,14.73
2022-10-26T00:38:38.711Z,11.15
2022-10-26T00:41:06.496Z,12.77
2022-10-26T00:43:36.996Z,15.32
2022-10-26T00:46:08.468Z,16.73
2022-10-26T00:48:41.423Z,10.98
2022-10-26T00:51:15.023Z,12.82
2022-10-26T00:53:44.788Z,15.00
2022-10-26T00:56:13.587Z,13.30
2022-10-26T00:58:41.416Z,13.57
2022-10-26T01:01:09.598Z,14.82
2022-10-26T01:03:38.292Z,16.13
2022-10-26T01:06:07.935Z,13.35
2022-10-26T01:08:35.659Z,14.25
2022-10-26T01:11:03.791Z,13.52
2022-10-26T01:13:34.209Z,15.45
2022-10-26T01:16:23.597Z,13.35
2022-10-26T01:19:09.079Z,12.23
2022-10-26T01:21:56.237Z,11.77
2022-10-26T01:24:47.768Z,11.00
2022-10-26T01:27:44.217Z,11.90
2022-10-26T01:30:37.172Z,9.40
2022-10-26T01:33:13.714Z,15.43
2022-10-26T01:35:54.823Z,17.25
2022-10-26T01:38:44.584Z,11.90
2022-10-26T01:41:24.042Z,10.40
2022-10-26T01:43:57.536Z,14.00
2022-10-26T01:46:27.479Z,17.95
2022-10-26T01:48:59.778Z,10.18
2022-10-26T01:51:29.813Z,13.38
2022-10-26T01:53:58.855Z,9.20
2022-10-26T01:56:30.848Z,11.48
2022-10-26T01:59:20.090Z,9.80
2022-10-26T02:01:53.764Z,11.80
2022-10-26T02:04:39.955Z,15.77
2022-10-26T02:07:15.483Z,13.18
2022-10-26T02:09:58.650Z,11.75
2022-10-26T02:12:26.563Z,13.85
2022-10-26T02:15:04.779Z,12.05
2022-10-26T02:17:49.783Z,14.20
2022-10-26T02:20:42.885Z,12.57
2022-10-26T02:23:12.304Z,16.02
2022-10-26T02:25:49.733Z,13.48
2022-10-26T02:28:25.658Z,11.35
2022-10-26T02:30:57.466Z,12.50
2022-10-26T02:33:28.698Z,10.70
2022-10-26T02:36:01.307Z,14.57
2022-10-26T02:38:32.312Z,12.13
2022-10-26T02:41:01.381Z,9.63
2022-10-26T02:43:33.077Z,14.00
2022-10-26T02:46:07.817Z,13.80
2022-10-26T02:48:38.567Z,15.55
2022-10-26T02:51:06.146Z,9.85
2022-10-26T02:54:03.383Z,15.50
2022-10-26T02:56:43.062Z,12.55
2022-10-26T02:59:13.022Z,10.73
2022-10-26T03:01:42.202Z,10.55
2022-10-26T03:04:10.134Z,9.80
2022-10-26T03:06:37.937Z,12.65
2022-10-26T03:09:05.735Z,10.40
2022-10-26T03:11:33.418Z,11.43
2022-10-26T03:14:01.191Z,11.20
2022-10-26T03:16:28.916Z,8.68
2022-10-26T03:18:56.606Z,12.32
2022-10-26T03:21:24.372Z,11.30
2022-10-26T03:23:52.125Z,12.63
2022-10-26T03:26:19.902Z,12.15
2022-10-26T03:28:47.529Z,10.10
2022-10-26T03:31:15.181Z,8.57
2022-10-26T03:33:43.212Z,11.23
2022-10-26T03:36:11.303Z,15.48
2022-10-26T03:38:39.132Z,16.80
2022-10-26T03:41:06.729Z,13.60
2022-10-26T03:43:34.404Z,14.68
2022-10-26T03:46:02.178Z,10.93
2022-10-26T03:48:29.873Z,11.38
2022-10-26T03:50:59.594Z,11.52
2022-10-26T03:53:27.521Z,10.30
2022-10-26T03:55:56.588Z,13.60
2022-10-26T04:00:53.275Z,11.60
2022-10-26T04:03:20.901Z,11.65
2022-10-26T04:05:48.734Z,13.90
2022-10-26T04:08:16.571Z,14.35
2022-10-26T04:10:45.887Z,12.52
2022-10-26T04:13:13.508Z,12.32
2022-10-26T04:15:41.323Z,13.27
2022-10-26T04:18:09.983Z,12.73
2022-10-26T04:20:39.437Z,11.80
2022-10-26T04:23:07.955Z,13.90
2022-10-26T04:25:35.680Z,11.80
2022-10-26T04:28:05.575Z,11.57
2022-10-26T04:30:35.004Z,11.52
2022-10-26T04:33:03.662Z,10.75
2022-10-26T04:35:31.718Z,12.73
2022-10-26T04:38:04.379Z,9.00
2022-10-26T04:40:33.525Z,9.98
2022-10-26T04:43:01.219Z,10.50
2022-10-26T04:45:31.194Z,15.63
2022-10-26T04:48:10.638Z,11.23
2022-10-26T04:50:39.370Z,12.25
2022-10-26T04:53:10.617Z,13.63
2022-10-26T04:55:38.380Z,15.88
2022-10-26T04:58:06.807Z,11.30
2022-10-26T05:00:35.419Z,15.48
2022-10-26T05:03:06.082Z,11.40
2022-10-26T05:05:35.984Z,13.77
2022-10-26T05:08:04.467Z,13.38
2022-10-26T05:10:32.527Z,10.27
2022-10-26T05:13:02.171Z,11.00
2022-10-26T05:15:30.209Z,15.88
2022-10-26T05:18:00.355Z,10.57
2022-10-26T05:20:31.235Z,55.28
2022-10-26T05:23:01.884Z,33.47
2022-10-26T05:25:32.299Z,24.20
2022-10-26T05:28:03.333Z,20.02
2022-10-26T05:30:32.069Z,16.95
2022-10-26T05:33:04.541Z,19.38
2022-10-26T05:35:32.846Z,23.33
2022-10-26T05:38:06.970Z,18.70
2022-10-26T05:40:34.945Z,18.05
2022-10-26T05:43:02.796Z,16.48
2022-10-26T05:45:30.733Z,15.88
2022-10-26T05:48:01.605Z,16.55
2022-10-26T05:50:30.938Z,14.93
2022-10-26T05:52:58.990Z,16.88
2022-10-26T05:55:26.975Z,16.60
2022-10-26T05:57:54.810Z,12.57
2022-10-26T06:00:26.095Z,16.20
2022-10-26T06:03:24.401Z,10.93
2022-10-26T06:05:58.117Z,11.05
2022-10-26T06:08:28.124Z,12.38
2022-10-26T06:10:59.540Z,12.55
2022-10-26T06:13:27.743Z,22.60
2022-10-26T06:16:10.675Z,16.50
2022-10-26T06:19:02.322Z,16.83
2022-10-26T06:21:32.856Z,13.65
2022-10-26T06:24:33.125Z,18.63
2022-10-26T06:27:19.680Z,14.43
2022-10-26T06:30:00.716Z,13.32
2022-10-26T06:32:29.305Z,12.90
2022-10-26T06:35:15.125Z,15.77
2022-10-26T06:37:45.578Z,16.92
2022-10-26T06:40:15.812Z,16.17
2022-10-26T06:42:44.034Z,26.88
2022-10-26T06:45:16.639Z,16.50
2022-10-26T06:47:57.249Z,20.02
2022-10-26T06:50:42.559Z,19.73
2022-10-26T06:53:37.601Z,19.60
2022-10-26T06:56:05.699Z,22.42
2022-10-26T06:58:36.372Z,15.25
2022-10-26T07:01:04.619Z,22.98
2022-10-26T07:03:32.315Z,22.67
2022-10-26T07:06:01.711Z,19.75
2022-10-26T07:08:32.174Z,20.63
2022-10-26T07:10:59.835Z,20.02
2022-10-26T07:13:28.904Z,19.65
2022-10-26T07:15:56.572Z,15.95
2022-10-26T07:18:24.357Z,22.20
2022-10-26T07:20:52.018Z,16.45
2022-10-26T07:23:19.949Z,21.73
2022-10-26T07:25:47.574Z,18.50
2022-10-26T07:28:15.582Z,16.70
2022-10-26T07:30:43.245Z,17.63
2022-10-26T07:33:13.750Z,15.98
2022-10-26T07:35:42.204Z,16.55
2022-10-26T07:38:09.949Z,19.58
2022-10-26T07:40:38.580Z,17.08
2022-10-26T07:43:06.918Z,14.35
2022-10-26T07:45:35.471Z,17.10
2022-10-26T07:48:03.003Z,17.00
2022-10-26T07:50:30.673Z,22.08
2022-10-26T07:52:59.866Z,15.68
2022-10-26T07:55:28.326Z,19.35
2022-10-26T07:57:56.427Z,22.75
2022-10-26T08:00:24.482Z,15.18
2022-10-26T08:02:52.348Z,22.00
2022-10-26T08:05:20.076Z,18.40
2022-10-26T08:07:49.611Z,15.45
2022-10-26T08:10:17.699Z,19.95
2022-10-26T08:12:45.742Z,15.50
2022-10-26T08:15:13.417Z,17.38
2022-10-26T08:17:41.075Z,16.40
2022-10-26T08:20:09.609Z,19.70
2022-10-26T08:22:37.457Z,22.27
2022-10-26T08:25:05.473Z,25.55
2022-10-26T08:27:33.203Z,26.65
2022-10-26T08:30:01.076Z,21.45
2022-10-26T08:32:28.987Z,19.02
2022-10-26T08:34:56.814Z,25.77
2022-10-26T08:37:24.502Z,18.70
2022-10-26T08:39:55.194Z,21.23
2022-10-26T08:42:30.416Z,19.67
2022-10-26T08:45:07.784Z,24.75
2022-10-26T08:47:43.811Z,21.23
2022-10-26T08:50:43.002Z,20.08
2022-10-26T08:53:44.636Z,23.88
2022-10-26T08:56:18.561Z,21.85
2022-10-26T08:59:27.315Z,23.02
2022-10-26T09:01:55.455Z,31.70
2022-10-26T09:04:28.276Z,31.67
2022-10-26T09:07:21.018Z,36.85
2022-10-26T09:10:04.146Z,26.23
2022-10-26T09:12:55.114Z,32.08
2022-10-26T09:15:48.519Z,33.55
2022-10-26T09:18:40.700Z,36.55
2022-10-26T09:21:17.818Z,36.92
2022-10-26T09:24:02.691Z,40.10
2022-10-26T09:26:30.619Z,29.60
2022-10-26T09:29:03.714Z,29.02
2022-10-26T09:31:42.340Z,29.95
2022-10-26T09:34:39.686Z,36.55
2022-10-26T09:37:28.971Z,24.38
2022-10-26T09:40:06.710Z,43.60
2022-10-26T09:42:42.086Z,40.63
2022-10-26T09:45:15.708Z,39.70
2022-10-26T09:47:53.281Z,44.08
2022-10-26T09:50:26.424Z,46.97
2022-10-26T09:52:54.194Z,40.72
2022-10-26T09:55:23.110Z,42.33
2022-10-26T09:57:54.556Z,47.33
2022-10-26T10:00:24.904Z,33.90
2022-10-26T10:02:55.224Z,40.70
2022-10-26T10:05:49.380Z,35.55
2022-10-26T10:08:27.222Z,41.42
2022-10-26T10:10:58.433Z,39.08
2022-10-26T10:13:29.530Z,39.10
2022-10-26T10:16:21.624Z,50.90
2022-10-26T10:18:59.610Z,33.42
2022-10-26T10:21:41.081Z,35.03
2022-10-26T10:24:32.960Z,24.50
2022-10-26T10:27:04.633Z,28.77
2022-10-26T10:29:50.677Z,32.78
2022-10-26T10:32:37.014Z,24.13
2022-10-26T10:35:24.978Z,25.10
2022-10-26T10:37:53.108Z,39.97
2022-10-26T10:40:26.674Z,22.23
2022-10-26T10:43:12.084Z,25.02
2022-10-26T10:45:41.028Z,23.98
2022-10-26T10:48:27.788Z,19.70
2022-10-26T10:51:13.214Z,23.58
2022-10-26T10:53:50.727Z,23.25
2022-10-26T10:56:47.980Z,21.63
2022-10-26T11:00:03.873Z,24.27
2022-10-26T11:03:09.500Z,22.42
2022-10-26T11:05:43.290Z,24.90
2022-10-26T11:08:36.579Z,27.67
2022-10-26T11:11:09.952Z,25.05
2022-10-26T11:13:49.455Z,23.42
2022-10-26T11:16:26.528Z,18.10
2022-10-26T11:19:23.521Z,25.77
2022-10-26T11:21:55.588Z,22.90
2022-10-26T11:24:23.131Z,23.38
2022-10-26T11:27:04.739Z,17.65
2022-10-26T11:29:51.870Z,23.30
2022-10-26T11:32:24.029Z,29.33
2022-10-26T11:34:57.587Z,30.77
2022-10-26T11:38:27.967Z,43.35
2022-10-26T11:41:31.101Z,46.20
2022-10-26T11:44:22.550Z,39.10
2022-10-26T11:46:57.115Z,54.47
2022-10-26T11:49:35.370Z,51.30
2022-10-26T11:52:22.277Z,64.65
2022-10-26T11:55:02.448Z,54.65
2022-10-26T11:57:33.223Z,45.42
2022-10-26T12:00:05.904Z,35.42
2022-10-26T12:05:22.474Z,67.63
2022-10-26T12:07:56.125Z,72.00
2022-10-26T12:10:26.339Z,91.13
2022-10-26T12:13:20.432Z,90.50
2022-10-26T12:16:04.016Z,72.43
2022-10-26T12:18:56.374Z,64.30
2022-10-26T12:21:28.800Z,50.17
2022-10-26T12:24:22.575Z,41.45
2022-10-26T12:26:51.587Z,33.08
2022-10-26T12:29:38.712Z,36.80
2022-10-26T12:32:31.084Z,33.97
2022-10-26T12:35:01.725Z,22.45
2022-10-26T12:37:37.706Z,31.52
2022-10-26T12:40:33.364Z,31.83
2022-10-26T12:43:23.970Z,31.42
2022-10-26T12:46:26.946Z,35.22
2022-10-26T12:48:56.229Z,34.83
2022-10-26T12:51:44.243Z,28.15
2022-10-26T12:54:41.914Z,18.85
2022-10-26T12:57:47.993Z,20.38
2022-10-26T13:00:21.861Z,18.58
2022-10-26T13:03:27.062Z,22.23
2022-10-26T13:06:28.807Z,26.08
2022-10-26T13:08:59.702Z,27.45
2022-10-26T13:11:35.366Z,19.73
2022-10-26T13:14:05.660Z,18.90
2022-10-26T13:16:34.272Z,21.13
2022-10-26T13:19:01.978Z,21.15
2022-10-26T13:21:29.591Z,19.02
2022-10-26T13:24:05.323Z,27.25
2022-10-26T13:26:53.547Z,31.77
2022-10-26T13:29:30.738Z,28.10
2022-10-26T13:31:59.630Z,36.00
2022-10-26T13:34:31.110Z,22.95
2022-10-26T13:37:05.637Z,26.42
2022-10-26T13:39:38.839Z,24.63
2022-10-26T13:42:12.291Z,22.20
2022-10-26T13:44:53.639Z,18.10
2022-10-26T13:47:41.586Z,19.35
2022-10-26T13:50:19.103Z,20.55
2022-10-26T13:52:51.341Z,19.45
2022-10-26T13:55:19.053Z,21.27
2022-10-26T13:58:14.491Z,24.48
2022-10-26T14:01:04.667Z,32.75
2022-10-26T14:03:32.531Z,31.15
2022-10-26T14:06:00.230Z,22.92
2022-10-26T14:08:27.949Z,21.80
2022-10-26T14:10:59.237Z,26.65
2022-10-26T14:13:29.116Z,26.25
2022-10-26T14:15:58.951Z,20.92
2022-10-26T14:18:29.605Z,23.15
2022-10-26T14:21:00.169Z,25.05
2022-10-26T14:23:38.391Z,34.50
2022-10-26T14:26:06.255Z,37.10
2022-10-26T14:28:45.926Z,32.08
2022-10-26T14:31:34.217Z,28.30
2022-10-26T14:34:05.455Z,25.63
2022-10-26T14:36:50.840Z,24.42
2022-10-26T14:39:27.488Z,26.00
2022-10-26T14:44:25.377Z,17.00
2022-10-26T14:46:53.017Z,22.00
2022-10-26T14:49:23.898Z,20.85
2022-10-26T14:52:00.032Z,26.70
2022-10-26T14:54:29.956Z,26.35
2022-10-26T14:56:58.120Z,25.00
2022-10-26T14:59:29.075Z,22.15
2022-10-26T15:02:20.053Z,26.05
2022-10-26T15:05:35.530Z,22.52
2022-10-26T15:08:03.725Z,27.48
2022-10-26T15:10:49.688Z,24.63
2022-10-26T15:13:33.469Z,25.23
2022-10-26T15:16:08.735Z,19.13
2022-10-26T15:18:38.637Z,28.48
2022-10-26T15:21:21.545Z,17.15
2022-10-26T15:23:50.546Z,21.90
2022-10-26T15:26:19.271Z,29.10
2022-10-26T15:28:49.785Z,26.88
2022-10-26T15:31:17.717Z,24.45
2022-10-26T15:33:51.412Z,19.63
2022-10-26T15:36:30.930Z,20.00
2022-10-26T15:38:59.756Z,21.42
2022-10-26T15:41:33.446Z,25.25
2022-10-26T15:44:06.318Z,20.48
2022-10-26T15:46:39.173Z,24.88
2022-10-26T15:49:08.817Z,24.15
2022-10-26T15:51:38.429Z,18.48
2022-10-26T15:54:06.857Z,18.90
2022-10-26T15:56:34.519Z,17.23
2022-10-26T15:59:02.230Z,21.70
2022-10-26T16:01:30.007Z,19.30
2022-10-26T16:03:57.717Z,20.63
2022-10-26T16:06:34.597Z,19.48
2022-10-26T16:09:05.021Z,19.83
2022-10-26T16:11:33.172Z,27.33
2022-10-26T16:14:03.577Z,20.15
2022-10-26T16:16:31.765Z,20.55
2022-10-26T16:19:18.548Z,19.20
2022-10-26T16:21:47.005Z,15.88
2022-10-26T16:24:14.731Z,20.88
2022-10-26T16:26:42.465Z,16.30
2022-10-26T16:29:10.122Z,17.20
2022-10-26T16:31:37.836Z,16.25
2022-10-26T16:34:05.630Z,13.63
2022-10-26T16:36:34.608Z,11.40
2022-10-26T16:41:32.132Z,15.73
2022-10-26T16:43:59.830Z,15.25
2022-10-26T16:46:27.464Z,12.13
2022-10-26T16:48:55.085Z,13.63
2022-10-26T16:51:26.512Z,13.55
2022-10-26T16:53:55.984Z,14.35
2022-10-26T16:56:29.435Z,19.63
2022-10-26T16:58:57.309Z,15.30
2022-10-26T17:01:25.110Z,19.15
2022-10-26T17:03:53.082Z,14.95
2022-10-26T17:06:21.041Z,15.20
2022-10-26T17:08:48.735Z,16.10
2022-10-26T17:11:18.955Z,15.32
2022-10-26T17:13:47.483Z,19.65
2022-10-26T17:16:18.153Z,18.35
2022-10-26T17:18:47.423Z,18.15
2022-10-26T17:21:17.330Z,17.38
2022-10-26T17:23:45.186Z,10.27
2022-10-26T17:26:14.387Z,12.95
2022-10-26T17:28:42.083Z,17.25
2022-10-26T17:31:15.428Z,13.32
2022-10-26T17:33:44.598Z,18.27
2022-10-26T17:36:14.013Z,21.90
2022-10-26T17:38:42.791Z,16.85
2022-10-26T17:41:13.028Z,19.90
2022-10-26T17:43:41.895Z,17.48
2022-10-26T17:46:20.746Z,15.80
2022-10-26T17:48:48.708Z,14.75
2022-10-26T17:51:18.801Z,15.55
2022-10-26T17:53:47.769Z,25.48
2022-10-26T17:56:24.287Z,29.08
2022-10-26T17:58:55.344Z,29.02
2022-10-26T18:01:23.423Z,19.70
2022-10-26T18:03:51.943Z,18.70
2022-10-26T18:06:20.269Z,22.13
2022-10-26T18:08:48.891Z,20.80
2022-10-26T18:11:26.525Z,20.48
2022-10-26T18:13:56.240Z,21.15
2022-10-26T18:16:25.953Z,12.30
2022-10-26T18:19:02.375Z,14.48
2022-10-26T18:21:34.742Z,16.00
2022-10-26T18:24:02.266Z,15.63
2022-10-26T18:26:31.170Z,15.32
2022-10-26T18:29:00.257Z,19.13
2022-10-26T18:31:29.284Z,15.68
2022-10-26T18:34:00.011Z,14.02
2022-10-26T18:36:28.490Z,18.25
2022-10-26T18:38:56.866Z,12.93
2022-10-26T18:41:25.626Z,15.32
2022-10-26T18:43:55.275Z,18.27
2022-10-26T18:46:30.027Z,12.50
2022-10-26T18:48:59.314Z,17.25
2022-10-26T18:51:31.996Z,16.92
2022-10-26T18:54:02.060Z,16.65
2022-10-26T18:56:29.765Z,25.45
2022-10-26T18:58:59.825Z,21.42
2022-10-26T19:01:35.842Z,16.67
2022-10-26T19:04:09.965Z,22.17
2022-10-26T19:06:40.063Z,17.80
2022-10-26T19:09:10.238Z,14.20
2022-10-26T19:11:38.563Z,20.73
2022-10-26T19:14:12.693Z,23.25
2022-10-26T19:16:45.852Z,21.52
2022-10-26T19:19:16.520Z,15.00
2022-10-26T19:21:46.889Z,19.42
2022-10-26T19:24:22.746Z,19.52
2022-10-26T19:26:53.895Z,16.75
2022-10-26T19:29:21.559Z,17.02
2022-10-26T19:31:52.048Z,17.58
2022-10-26T19:34:19.960Z,19.42
2022-10-26T19:36:47.989Z,19.65
2022-10-26T19:39:17.099Z,19.25
2022-10-26T19:41:46.043Z,21.77
2022-10-26T19:44:14.914Z,21.23
2022-10-26T19:46:43.879Z,20.73
2022-10-26T19:49:13.143Z,18.63
2022-10-26T19:51:40.978Z,17.17
2022-10-26T19:54:08.784Z,18.20
2022-10-26T19:56:38.194Z,17.23
2022-10-26T19:59:07.034Z,16.70
2022-10-26T20:01:35.330Z,26.23
2022-10-26T20:04:04.259Z,25.80
2022-10-26T20:06:32.298Z,31.58
2022-10-26T20:09:00.433Z,25.63
2022-10-26T20:11:28.498Z,26.60
2022-10-26T20:13:56.641Z,21.00
2022-10-26T20:16:24.902Z,21.08
2022-10-26T20:18:52.882Z,17.75
2022-10-26T20:21:20.872Z,17.48
2022-10-26T20:23:48.746Z,13.75
2022-10-26T20:26:19.686Z,15.10
2022-10-26T20:28:49.085Z,20.08
2022-10-26T20:31:16.989Z,15.13
2022-10-26T20:33:44.632Z,18.42
2022-10-26T20:36:12.342Z,18.33
2022-10-26T20:38:40.256Z,42.67
2022-10-26T20:41:12.397Z,36.75
2022-10-26T20:43:41.339Z,27.58
2022-10-26T20:46:20.983Z,26.45
2022-10-26T20:48:49.854Z,22.52
2022-10-26T20:51:44.413Z,20.27
2022-10-26T20:54:32.827Z,18.77
2022-10-26T20:57:02.921Z,18.25
2022-10-26T20:59:44.120Z,18.10
2022-10-26T21:02:12.607Z,19.83
2022-10-26T21:04:40.334Z,16.13
2022-10-26T21:07:08.710Z,14.57
2022-10-26T21:09:36.868Z,15.38
2022-10-26T21:12:05.232Z,14.25
2022-10-26T21:14:36.840Z,13.48
2022-10-26T21:17:04.615Z,13.82
2022-10-26T21:19:32.222Z,15.13
2022-10-26T21:21:59.869Z,15.13
2022-10-26T21:24:27.385Z,13.48
2022-10-26T21:26:55.379Z,13.32
2022-10-26T21:29:23.097Z,19.95
2022-10-26T21:31:50.620Z,14.75
2022-10-26T21:34:18.357Z,20.60
2022-10-26T21:36:45.998Z,18.50
2022-10-26T21:39:13.662Z,16.33
2022-10-26T21:41:41.372Z,16.77
2022-10-26T21:44:23.240Z,17.90
2022-10-26T21:46:58.077Z,24.58
2022-10-26T21:49:26.752Z,19.67
2022-10-26T21:51:54.399Z,16.95
2022-10-26T21:54:21.893Z,16.67
2022-10-26T21:56:49.386Z,23.15
2022-10-26T21:59:16.961Z,23.88
2022-10-26T22:01:44.957Z,19.02
2022-10-26T22:04:12.811Z,18.27
2022-10-26T22:06:40.495Z,18.17
2022-10-26T22:09:08.189Z,23.35
2022-10-26T22:11:35.886Z,20.15
2022-10-26T22:14:03.673Z,22.75
2022-10-26T22:16:32.502Z,21.60
2022-10-26T22:19:05.297Z,19.25
2022-10-26T22:21:42.279Z,18.13
2022-10-26T22:24:10.448Z,18.92
2022-10-26T22:26:39.597Z,15.55
2022-10-26T22:29:07.372Z,22.10
2022-10-26T22:31:38.861Z,17.27
2022-10-26T22:34:13.360Z,17.92
2022-10-26T22:36:41.519Z,17.80
2022-10-26T22:39:09.096Z,14.77
2022-10-26T22:41:37.667Z,15.20
2022-10-26T22:44:05.540Z,17.75
2022-10-26T22:46:33.416Z,20.38
2022-10-26T22:49:02.407Z,17.70
2022-10-26T22:51:33.241Z,16.55
2022-10-26T22:54:02.454Z,16.88
2022-10-26T22:56:32.167Z,16.20
2022-10-26T22:59:00.340Z,18.73
2022-10-26T23:01:33.874Z,16.35
2022-10-26T23:04:01.771Z,15.02
2022-10-26T23:06:31.526Z,16.48
2022-10-26T23:08:59.712Z,14.77
2022-10-26T23:11:28.591Z,16.45
2022-10-26T23:13:58.513Z,14.60
2022-10-26T23:16:27.280Z,15.18
2022-10-26T23:18:55.467Z,14.60
2022-10-26T23:23:58.225Z,14.77
2022-10-26T23:26:25.910Z,16.10
2022-10-26T23:28:53.669Z,14.50
2022-10-26T23:31:24.164Z,14.45
2022-10-26T23:33:53.206Z,16.48
2022-10-26T23:36:21.303Z,11.98
2022-10-26T23:38:49.107Z,12.40
2022-10-26T23:41:16.855Z,15.45
2022-10-26T23:43:44.744Z,16.27
2022-10-26T23:46:12.522Z,16.52
2022-10-26T23:48:40.213Z,16.02
2022-10-26T23:51:07.729Z,13.65
2022-10-26T23:53:35.467Z,14.52
2022-10-26T23:56:03.356Z,15.35
2022-10-26T23:58:31.801Z,13.18
